sensor_id;sensor_type;location;lat;lon;timestamp;P1;durP1;ratioP1;P2;durP2;ratioP2
54539;SDS011;40438;52.992;18.604;2023-02-05T00:01:10;8.15;;;4.43;;
54539;SDS011;40438;52.992;18.604;2023-02-05T00:03:36;10.10;;;4.80;;
54539;SDS011;40438;52.992;18.604;2023-02-05T00:06:01;8.55;;;4.22;;
54539;SDS011;40438;52.992;18.604;2023-02-05T00:08:27;6.20;;;4.15;;
54539;SDS011;40438;52.992;18.604;2023-02-05T00:10:53;9.85;;;4.82;;
54539;SDS011;40438;52.992;18.604;2023-02-05T00:13:19;7.90;;;4.05;;
54539;SDS011;40438;52.992;18.604;2023-02-05T00:15:44;9.80;;;4.55;;
54539;SDS011;40438;52.992;18.604;2023-02-05T00:18:12;7.47;;;4.60;;
54539;SDS011;40438;52.992;18.604;2023-02-05T00:20:37;8.40;;;4.40;;
54539;SDS011;40438;52.992;18.604;2023-02-05T00:23:03;8.00;;;4.55;;
54539;SDS011;40438;52.992;18.604;2023-02-05T00:25:29;8.00;;;4.32;;
54539;SDS011;40438;52.992;18.604;2023-02-05T00:27:55;10.40;;;4.65;;
54539;SDS011;40438;52.992;18.604;2023-02-05T00:30:21;8.52;;;4.53;;
54539;SDS011;40438;52.992;18.604;2023-02-05T00:32:47;9.57;;;4.35;;
54539;SDS011;40438;52.992;18.604;2023-02-05T00:35:14;8.52;;;4.43;;
54539;SDS011;40438;52.992;18.604;2023-02-05T00:37:40;9.30;;;4.20;;
54539;SDS011;40438;52.992;18.604;2023-02-05T00:40:06;8.93;;;4.50;;
54539;SDS011;40438;52.992;18.604;2023-02-05T00:42:32;6.68;;;4.10;;
54539;SDS011;40438;52.992;18.604;2023-02-05T00:44:58;10.20;;;4.55;;
54539;SDS011;40438;52.992;18.604;2023-02-05T00:47:24;8.93;;;3.92;;
54539;SDS011;40438;52.992;18.604;2023-02-05T00:49:49;6.82;;;4.65;;
54539;SDS011;40438;52.992;18.604;2023-02-05T00:52:17;9.70;;;4.25;;
54539;SDS011;40438;52.992;18.604;2023-02-05T00:54:42;10.18;;;4.45;;
54539;SDS011;40438;52.992;18.604;2023-02-05T00:57:08;6.78;;;4.22;;
54539;SDS011;40438;52.992;18.604;2023-02-05T00:59:34;9.18;;;4.22;;
54539;SDS011;40438;52.992;18.604;2023-02-05T01:02:00;7.75;;;4.00;;
54539;SDS011;40438;52.992;18.604;2023-02-05T01:04:26;6.97;;;3.90;;
54539;SDS011;40438;52.992;18.604;2023-02-05T01:06:52;7.28;;;3.95;;
54539;SDS011;40438;52.992;18.604;2023-02-05T01:09:20;7.45;;;4.03;;
54539;SDS011;40438;52.992;18.604;2023-02-05T01:11:46;9.15;;;4.60;;
54539;SDS011;40438;52.992;18.604;2023-02-05T01:14:12;8.10;;;4.03;;
54539;SDS011;40438;52.992;18.604;2023-02-05T01:16:37;8.43;;;4.00;;
54539;SDS011;40438;52.992;18.604;2023-02-05T01:19:03;7.85;;;4.72;;
54539;SDS011;40438;52.992;18.604;2023-02-05T01:21:29;6.93;;;3.85;;
54539;SDS011;40438;52.992;18.604;2023-02-05T01:23:55;6.75;;;3.90;;
54539;SDS011;40438;52.992;18.604;2023-02-05T01:26:22;6.80;;;4.32;;
54539;SDS011;40438;52.992;18.604;2023-02-05T01:28:48;9.35;;;4.35;;
54539;SDS011;40438;52.992;18.604;2023-02-05T01:31:13;7.18;;;3.67;;
54539;SDS011;40438;52.992;18.604;2023-02-05T01:33:39;5.82;;;3.80;;
54539;SDS011;40438;52.992;18.604;2023-02-05T01:36:05;6.05;;;3.35;;
54539;SDS011;40438;52.992;18.604;2023-02-05T01:38:32;7.20;;;3.75;;
54539;SDS011;40438;52.992;18.604;2023-02-05T01:40:58;5.35;;;3.40;;
54539;SDS011;40438;52.992;18.604;2023-02-05T01:43:25;6.70;;;3.78;;
54539;SDS011;40438;52.992;18.604;2023-02-05T01:46:03;7.68;;;3.80;;
54539;SDS011;40438;52.992;18.604;2023-02-05T01:48:39;7.45;;;3.53;;
54539;SDS011;40438;52.992;18.604;2023-02-05T01:51:07;6.68;;;3.22;;
54539;SDS011;40438;52.992;18.604;2023-02-05T01:53:36;6.10;;;3.60;;
54539;SDS011;40438;52.992;18.604;2023-02-05T01:56:03;6.15;;;3.55;;
54539;SDS011;40438;52.992;18.604;2023-02-05T01:58:35;6.65;;;3.60;;
54539;SDS011;40438;52.992;18.604;2023-02-05T02:01:04;5.40;;;3.57;;
54539;SDS011;40438;52.992;18.604;2023-02-05T02:03:30;9.10;;;3.95;;
54539;SDS011;40438;52.992;18.604;2023-02-05T02:05:56;7.32;;;3.25;;
54539;SDS011;40438;52.992;18.604;2023-02-05T02:08:22;6.60;;;3.40;;
54539;SDS011;40438;52.992;18.604;2023-02-05T02:10:49;6.03;;;3.25;;
54539;SDS011;40438;52.992;18.604;2023-02-05T02:13:15;6.75;;;3.65;;
54539;SDS011;40438;52.992;18.604;2023-02-05T02:15:45;8.77;;;4.00;;
54539;SDS011;40438;52.992;18.604;2023-02-05T02:18:13;8.25;;;3.80;;
54539;SDS011;40438;52.992;18.604;2023-02-05T02:20:41;6.25;;;2.92;;
54539;SDS011;40438;52.992;18.604;2023-02-05T02:23:09;6.05;;;3.40;;
54539;SDS011;40438;52.992;18.604;2023-02-05T02:25:47;6.90;;;3.65;;
54539;SDS011;40438;52.992;18.604;2023-02-05T02:28:31;6.85;;;3.75;;
54539;SDS011;40438;52.992;18.604;2023-02-05T02:31:01;6.00;;;3.75;;
54539;SDS011;40438;52.992;18.604;2023-02-05T02:33:31;8.48;;;3.85;;
54539;SDS011;40438;52.992;18.604;2023-02-05T02:36:04;8.23;;;4.05;;
54539;SDS011;40438;52.992;18.604;2023-02-05T02:38:33;6.57;;;3.38;;
54539;SDS011;40438;52.992;18.604;2023-02-05T02:41:09;5.53;;;3.30;;
54539;SDS011;40438;52.992;18.604;2023-02-05T02:43:42;6.67;;;3.60;;
54539;SDS011;40438;52.992;18.604;2023-02-05T02:46:15;7.10;;;3.47;;
54539;SDS011;40438;52.992;18.604;2023-02-05T02:48:46;7.20;;;3.70;;
54539;SDS011;40438;52.992;18.604;2023-02-05T02:51:14;7.57;;;3.80;;
54539;SDS011;40438;52.992;18.604;2023-02-05T02:53:43;8.07;;;3.85;;
54539;SDS011;40438;52.992;18.604;2023-02-05T02:56:13;6.50;;;3.40;;
54539;SDS011;40438;52.992;18.604;2023-02-05T02:58:44;5.70;;;3.67;;
54539;SDS011;40438;52.992;18.604;2023-02-05T03:01:13;7.68;;;3.75;;
54539;SDS011;40438;52.992;18.604;2023-02-05T03:03:42;8.68;;;4.30;;
54539;SDS011;40438;52.992;18.604;2023-02-05T03:06:13;7.90;;;3.03;;
54539;SDS011;40438;52.992;18.604;2023-02-05T03:08:44;8.52;;;3.50;;
54539;SDS011;40438;52.992;18.604;2023-02-05T03:11:14;5.93;;;3.35;;
54539;SDS011;40438;52.992;18.604;2023-02-05T03:13:41;6.65;;;3.60;;
54539;SDS011;40438;52.992;18.604;2023-02-05T03:16:10;6.72;;;3.40;;
54539;SDS011;40438;52.992;18.604;2023-02-05T03:18:37;6.60;;;3.60;;
54539;SDS011;40438;52.992;18.604;2023-02-05T03:21:04;6.38;;;3.90;;
54539;SDS011;40438;52.992;18.604;2023-02-05T03:23:33;7.55;;;3.58;;
54539;SDS011;40438;52.992;18.604;2023-02-05T03:25:59;5.78;;;3.40;;
54539;SDS011;40438;52.992;18.604;2023-02-05T03:28:35;6.32;;;3.50;;
54539;SDS011;40438;52.992;18.604;2023-02-05T03:31:04;6.28;;;3.17;;
54539;SDS011;40438;52.992;18.604;2023-02-05T03:33:40;13.45;;;3.88;;
54539;SDS011;40438;52.992;18.604;2023-02-05T03:36:16;7.15;;;3.38;;
54539;SDS011;40438;52.992;18.604;2023-02-05T03:39:00;6.93;;;3.58;;
54539;SDS011;40438;52.992;18.604;2023-02-05T03:41:35;4.65;;;3.05;;
54539;SDS011;40438;52.992;18.604;2023-02-05T03:44:09;5.80;;;3.40;;
54539;SDS011;40438;52.992;18.604;2023-02-05T03:46:48;5.38;;;3.40;;
54539;SDS011;40438;52.992;18.604;2023-02-05T03:49:23;5.93;;;3.70;;
54539;SDS011;40438;52.992;18.604;2023-02-05T03:51:58;5.60;;;3.53;;
54539;SDS011;40438;52.992;18.604;2023-02-05T03:54:30;6.30;;;3.85;;
54539;SDS011;40438;52.992;18.604;2023-02-05T03:57:03;5.78;;;3.20;;
54539;SDS011;40438;52.992;18.604;2023-02-05T03:59:35;5.47;;;3.28;;
54539;SDS011;40438;52.992;18.604;2023-02-05T04:02:02;7.63;;;3.30;;
54539;SDS011;40438;52.992;18.604;2023-02-05T04:04:30;7.10;;;3.42;;
54539;SDS011;40438;52.992;18.604;2023-02-05T04:06:56;7.35;;;3.75;;
54539;SDS011;40438;52.992;18.604;2023-02-05T04:09:22;5.88;;;3.33;;
54539;SDS011;40438;52.992;18.604;2023-02-05T04:11:48;6.13;;;3.50;;
54539;SDS011;40438;52.992;18.604;2023-02-05T04:14:15;6.40;;;3.28;;
54539;SDS011;40438;52.992;18.604;2023-02-05T04:16:42;7.78;;;3.40;;
54539;SDS011;40438;52.992;18.604;2023-02-05T04:19:08;6.40;;;3.42;;
54539;SDS011;40438;52.992;18.604;2023-02-05T04:21:36;7.53;;;3.38;;
54539;SDS011;40438;52.992;18.604;2023-02-05T04:24:02;7.15;;;3.45;;
54539;SDS011;40438;52.992;18.604;2023-02-05T04:26:29;6.50;;;3.45;;
54539;SDS011;40438;52.992;18.604;2023-02-05T04:29:00;7.32;;;3.83;;
54539;SDS011;40438;52.992;18.604;2023-02-05T04:31:27;7.55;;;3.60;;
54539;SDS011;40438;52.992;18.604;2023-02-05T04:33:55;7.05;;;3.42;;
54539;SDS011;40438;52.992;18.604;2023-02-05T04:36:21;6.03;;;3.95;;
54539;SDS011;40438;52.992;18.604;2023-02-05T04:38:48;5.97;;;3.47;;
54539;SDS011;40438;52.992;18.604;2023-02-05T04:41:14;7.40;;;3.63;;
54539;SDS011;40438;52.992;18.604;2023-02-05T04:43:40;6.50;;;3.20;;
54539;SDS011;40438;52.992;18.604;2023-02-05T04:46:06;6.68;;;3.55;;
54539;SDS011;40438;52.992;18.604;2023-02-05T04:48:32;9.43;;;3.50;;
54539;SDS011;40438;52.992;18.604;2023-02-05T04:50:58;7.53;;;3.55;;
54539;SDS011;40438;52.992;18.604;2023-02-05T04:53:24;6.97;;;3.70;;
54539;SDS011;40438;52.992;18.604;2023-02-05T04:55:51;5.60;;;3.45;;
54539;SDS011;40438;52.992;18.604;2023-02-05T04:58:17;7.07;;;3.33;;
54539;SDS011;40438;52.992;18.604;2023-02-05T05:00:43;6.57;;;3.78;;
54539;SDS011;40438;52.992;18.604;2023-02-05T05:03:09;5.95;;;3.28;;
54539;SDS011;40438;52.992;18.604;2023-02-05T05:05:34;7.55;;;3.13;;
54539;SDS011;40438;52.992;18.604;2023-02-05T05:08:00;5.63;;;2.67;;
54539;SDS011;40438;52.992;18.604;2023-02-05T05:10:26;6.93;;;3.78;;
54539;SDS011;40438;52.992;18.604;2023-02-05T05:12:53;6.22;;;3.38;;
54539;SDS011;40438;52.992;18.604;2023-02-05T05:15:19;5.45;;;3.38;;
54539;SDS011;40438;52.992;18.604;2023-02-05T05:17:45;6.60;;;3.47;;
54539;SDS011;40438;52.992;18.604;2023-02-05T05:20:11;6.40;;;3.67;;
54539;SDS011;40438;52.992;18.604;2023-02-05T05:22:36;6.78;;;3.50;;
54539;SDS011;40438;52.992;18.604;2023-02-05T05:25:02;5.78;;;3.38;;
54539;SDS011;40438;52.992;18.604;2023-02-05T05:27:28;7.55;;;3.47;;
54539;SDS011;40438;52.992;18.604;2023-02-05T05:29:55;5.22;;;3.50;;
54539;SDS011;40438;52.992;18.604;2023-02-05T05:32:21;6.93;;;3.75;;
54539;SDS011;40438;52.992;18.604;2023-02-05T05:34:46;6.35;;;3.17;;
54539;SDS011;40438;52.992;18.604;2023-02-05T05:37:12;6.38;;;3.30;;
54539;SDS011;40438;52.992;18.604;2023-02-05T05:39:38;5.55;;;2.80;;
54539;SDS011;40438;52.992;18.604;2023-02-05T05:42:04;5.93;;;3.35;;
54539;SDS011;40438;52.992;18.604;2023-02-05T05:44:30;6.38;;;3.53;;
54539;SDS011;40438;52.992;18.604;2023-02-05T05:46:57;7.13;;;4.13;;
54539;SDS011;40438;52.992;18.604;2023-02-05T05:49:23;5.97;;;4.00;;
54539;SDS011;40438;52.992;18.604;2023-02-05T05:51:48;7.47;;;3.72;;
54539;SDS011;40438;52.992;18.604;2023-02-05T05:54:14;7.47;;;4.10;;
54539;SDS011;40438;52.992;18.604;2023-02-05T05:56:40;7.20;;;3.80;;
54539;SDS011;40438;52.992;18.604;2023-02-05T05:59:06;6.95;;;3.85;;
54539;SDS011;40438;52.992;18.604;2023-02-05T06:01:31;6.05;;;3.58;;
54539;SDS011;40438;52.992;18.604;2023-02-05T06:03:59;7.45;;;3.65;;
54539;SDS011;40438;52.992;18.604;2023-02-05T06:06:24;5.50;;;3.70;;
54539;SDS011;40438;52.992;18.604;2023-02-05T06:08:50;7.22;;;3.80;;
54539;SDS011;40438;52.992;18.604;2023-02-05T06:11:16;6.88;;;3.67;;
54539;SDS011;40438;52.992;18.604;2023-02-05T06:13:42;7.93;;;3.97;;
54539;SDS011;40438;52.992;18.604;2023-02-05T06:16:07;6.13;;;3.58;;
54539;SDS011;40438;52.992;18.604;2023-02-05T06:18:33;5.63;;;3.53;;
54539;SDS011;40438;52.992;18.604;2023-02-05T06:21:00;8.30;;;3.70;;
54539;SDS011;40438;52.992;18.604;2023-02-05T06:23:26;5.50;;;3.40;;
54539;SDS011;40438;52.992;18.604;2023-02-05T06:25:52;8.65;;;3.72;;
54539;SDS011;40438;52.992;18.604;2023-02-05T06:28:18;6.78;;;3.65;;
54539;SDS011;40438;52.992;18.604;2023-02-05T06:30:43;7.05;;;3.53;;
54539;SDS011;40438;52.992;18.604;2023-02-05T06:33:09;6.53;;;3.70;;
54539;SDS011;40438;52.992;18.604;2023-02-05T06:35:35;5.55;;;3.60;;
54539;SDS011;40438;52.992;18.604;2023-02-05T06:38:02;8.45;;;3.70;;
54539;SDS011;40438;52.992;18.604;2023-02-05T06:40:28;11.38;;;5.10;;
54539;SDS011;40438;52.992;18.604;2023-02-05T06:42:54;7.97;;;3.70;;
54539;SDS011;40438;52.992;18.604;2023-02-05T06:45:20;8.65;;;4.05;;
54539;SDS011;40438;52.992;18.604;2023-02-05T06:47:46;10.48;;;3.80;;
54539;SDS011;40438;52.992;18.604;2023-02-05T06:50:12;8.00;;;4.13;;
54539;SDS011;40438;52.992;18.604;2023-02-05T06:52:38;6.00;;;3.60;;
54539;SDS011;40438;52.992;18.604;2023-02-05T06:55:05;9.00;;;4.22;;
54539;SDS011;40438;52.992;18.604;2023-02-05T06:57:31;7.85;;;4.57;;
54539;SDS011;40438;52.992;18.604;2023-02-05T06:59:57;8.18;;;3.90;;
54539;SDS011;40438;52.992;18.604;2023-02-05T07:02:23;6.05;;;3.83;;
54539;SDS011;40438;52.992;18.604;2023-02-05T07:04:49;7.70;;;4.00;;
54539;SDS011;40438;52.992;18.604;2023-02-05T07:07:14;8.93;;;4.20;;
54539;SDS011;40438;52.992;18.604;2023-02-05T07:09:40;8.23;;;4.60;;
54539;SDS011;40438;52.992;18.604;2023-02-05T07:12:07;8.40;;;4.10;;
54539;SDS011;40438;52.992;18.604;2023-02-05T07:14:35;9.65;;;5.10;;
54539;SDS011;40438;52.992;18.604;2023-02-05T07:17:01;8.63;;;5.20;;
54539;SDS011;40438;52.992;18.604;2023-02-05T07:19:27;18.13;;;5.30;;
54539;SDS011;40438;52.992;18.604;2023-02-05T07:21:53;10.65;;;5.40;;
54539;SDS011;40438;52.992;18.604;2023-02-05T07:24:19;11.93;;;5.30;;
54539;SDS011;40438;52.992;18.604;2023-02-05T07:26:44;11.35;;;5.15;;
54539;SDS011;40438;52.992;18.604;2023-02-05T07:29:12;12.43;;;5.57;;
54539;SDS011;40438;52.992;18.604;2023-02-05T07:31:38;11.85;;;5.40;;
54539;SDS011;40438;52.992;18.604;2023-02-05T07:34:04;17.55;;;5.13;;
54539;SDS011;40438;52.992;18.604;2023-02-05T07:36:29;10.88;;;5.75;;
54539;SDS011;40438;52.992;18.604;2023-02-05T07:38:55;13.80;;;5.35;;
54539;SDS011;40438;52.992;18.604;2023-02-05T07:41:21;20.88;;;7.45;;
54539;SDS011;40438;52.992;18.604;2023-02-05T07:43:49;10.93;;;5.25;;
54539;SDS011;40438;52.992;18.604;2023-02-05T07:46:16;13.95;;;5.25;;
54539;SDS011;40438;52.992;18.604;2023-02-05T07:48:44;9.20;;;5.57;;
54539;SDS011;40438;52.992;18.604;2023-02-05T07:51:12;12.55;;;5.90;;
54539;SDS011;40438;52.992;18.604;2023-02-05T07:53:40;15.38;;;6.13;;
54539;SDS011;40438;52.992;18.604;2023-02-05T07:56:06;14.40;;;5.45;;
54539;SDS011;40438;52.992;18.604;2023-02-05T07:58:32;14.75;;;5.78;;
54539;SDS011;40438;52.992;18.604;2023-02-05T08:00:59;14.43;;;6.15;;
54539;SDS011;40438;52.992;18.604;2023-02-05T08:03:26;16.02;;;6.47;;
54539;SDS011;40438;52.992;18.604;2023-02-05T08:05:52;17.92;;;5.57;;
54539;SDS011;40438;52.992;18.604;2023-02-05T08:08:18;17.08;;;6.90;;
54539;SDS011;40438;52.992;18.604;2023-02-05T08:10:43;13.57;;;6.32;;
54539;SDS011;40438;52.992;18.604;2023-02-05T08:13:09;20.23;;;6.00;;
54539;SDS011;40438;52.992;18.604;2023-02-05T08:15:36;21.55;;;7.32;;
54539;SDS011;40438;52.992;18.604;2023-02-05T08:18:03;16.73;;;6.20;;
54539;SDS011;40438;52.992;18.604;2023-02-05T08:20:30;41.33;;;6.53;;
54539;SDS011;40438;52.992;18.604;2023-02-05T08:22:56;16.05;;;6.25;;
54539;SDS011;40438;52.992;18.604;2023-02-05T08:25:22;21.33;;;6.22;;
54539;SDS011;40438;52.992;18.604;2023-02-05T08:27:47;17.67;;;6.57;;
54539;SDS011;40438;52.992;18.604;2023-02-05T08:30:14;16.55;;;6.05;;
54539;SDS011;40438;52.992;18.604;2023-02-05T08:32:41;24.08;;;8.57;;
54539;SDS011;40438;52.992;18.604;2023-02-05T08:35:11;12.43;;;6.30;;
54539;SDS011;40438;52.992;18.604;2023-02-05T08:37:38;17.27;;;6.30;;
54539;SDS011;40438;52.992;18.604;2023-02-05T08:40:04;18.85;;;6.07;;
54539;SDS011;40438;52.992;18.604;2023-02-05T08:42:30;15.15;;;5.60;;
54539;SDS011;40438;52.992;18.604;2023-02-05T08:44:56;11.48;;;6.20;;
54539;SDS011;40438;52.992;18.604;2023-02-05T08:47:22;15.05;;;6.72;;
54539;SDS011;40438;52.992;18.604;2023-02-05T08:49:48;17.67;;;7.50;;
54539;SDS011;40438;52.992;18.604;2023-02-05T08:52:13;14.82;;;8.15;;
54539;SDS011;40438;52.992;18.604;2023-02-05T08:54:41;23.65;;;8.00;;
54539;SDS011;40438;52.992;18.604;2023-02-05T08:57:07;16.83;;;7.35;;
54539;SDS011;40438;52.992;18.604;2023-02-05T08:59:32;16.60;;;7.20;;
54539;SDS011;40438;52.992;18.604;2023-02-05T09:01:58;22.25;;;6.15;;
54539;SDS011;40438;52.992;18.604;2023-02-05T09:04:24;13.95;;;6.70;;
54539;SDS011;40438;52.992;18.604;2023-02-05T09:06:50;12.70;;;6.25;;
54539;SDS011;40438;52.992;18.604;2023-02-05T09:09:15;15.85;;;5.72;;
54539;SDS011;40438;52.992;18.604;2023-02-05T09:11:43;14.13;;;6.30;;
54539;SDS011;40438;52.992;18.604;2023-02-05T09:14:10;13.15;;;6.03;;
54539;SDS011;40438;52.992;18.604;2023-02-05T09:16:37;15.40;;;6.90;;
54539;SDS011;40438;52.992;18.604;2023-02-05T09:19:03;14.15;;;6.00;;
54539;SDS011;40438;52.992;18.604;2023-02-05T09:21:29;21.75;;;6.95;;
54539;SDS011;40438;52.992;18.604;2023-02-05T09:23:55;15.15;;;6.30;;
54539;SDS011;40438;52.992;18.604;2023-02-05T09:26:21;17.85;;;6.97;;
54539;SDS011;40438;52.992;18.604;2023-02-05T09:28:48;14.13;;;6.03;;
54539;SDS011;40438;52.992;18.604;2023-02-05T09:31:15;16.00;;;6.03;;
54539;SDS011;40438;52.992;18.604;2023-02-05T09:33:42;17.58;;;7.60;;
54539;SDS011;40438;52.992;18.604;2023-02-05T09:36:09;18.85;;;7.53;;
54539;SDS011;40438;52.992;18.604;2023-02-05T09:38:37;14.73;;;6.40;;
54539;SDS011;40438;52.992;18.604;2023-02-05T09:41:04;13.00;;;6.22;;
54539;SDS011;40438;52.992;18.604;2023-02-05T09:43:40;14.38;;;6.53;;
54539;SDS011;40438;52.992;18.604;2023-02-05T09:46:13;14.15;;;5.72;;
54539;SDS011;40438;52.992;18.604;2023-02-05T09:48:46;12.88;;;6.35;;
54539;SDS011;40438;52.992;18.604;2023-02-05T09:51:15;13.07;;;6.07;;
54539;SDS011;40438;52.992;18.604;2023-02-05T09:53:44;13.68;;;6.45;;
54539;SDS011;40438;52.992;18.604;2023-02-05T09:56:13;14.15;;;6.00;;
54539;SDS011;40438;52.992;18.604;2023-02-05T09:58:41;16.00;;;6.47;;
54539;SDS011;40438;52.992;18.604;2023-02-05T10:01:13;20.25;;;5.75;;
54539;SDS011;40438;52.992;18.604;2023-02-05T10:03:44;18.55;;;6.32;;
54539;SDS011;40438;52.992;18.604;2023-02-05T10:06:15;15.30;;;5.82;;
54539;SDS011;40438;52.992;18.604;2023-02-05T10:08:53;10.35;;;5.72;;
54539;SDS011;40438;52.992;18.604;2023-02-05T10:11:26;16.33;;;6.05;;
54539;SDS011;40438;52.992;18.604;2023-02-05T10:14:00;12.02;;;6.05;;
54539;SDS011;40438;52.992;18.604;2023-02-05T10:19:40;11.57;;;5.85;;
54539;SDS011;40438;52.992;18.604;2023-02-05T10:22:20;14.95;;;6.20;;
54539;SDS011;40438;52.992;18.604;2023-02-05T10:25:01;12.60;;;6.18;;
54539;SDS011;40438;52.992;18.604;2023-02-05T10:27:35;12.15;;;5.90;;
54539;SDS011;40438;52.992;18.604;2023-02-05T10:30:09;14.45;;;6.93;;
54539;SDS011;40438;52.992;18.604;2023-02-05T10:32:44;13.43;;;6.65;;
54539;SDS011;40438;52.992;18.604;2023-02-05T10:35:22;15.38;;;6.78;;
54539;SDS011;40438;52.992;18.604;2023-02-05T10:37:51;10.63;;;6.03;;
54539;SDS011;40438;52.992;18.604;2023-02-05T10:40:19;12.23;;;6.40;;
54539;SDS011;40438;52.992;18.604;2023-02-05T10:42:48;18.00;;;6.90;;
54539;SDS011;40438;52.992;18.604;2023-02-05T10:45:17;17.08;;;7.20;;
54539;SDS011;40438;52.992;18.604;2023-02-05T10:47:49;13.70;;;6.53;;
54539;SDS011;40438;52.992;18.604;2023-02-05T10:50:25;19.95;;;7.25;;
54539;SDS011;40438;52.992;18.604;2023-02-05T10:52:54;13.15;;;6.68;;
54539;SDS011;40438;52.992;18.604;2023-02-05T10:55:20;12.38;;;5.93;;
54539;SDS011;40438;52.992;18.604;2023-02-05T10:57:46;12.75;;;6.85;;
54539;SDS011;40438;52.992;18.604;2023-02-05T11:00:13;14.82;;;6.85;;
54539;SDS011;40438;52.992;18.604;2023-02-05T11:02:45;17.10;;;6.22;;
54539;SDS011;40438;52.992;18.604;2023-02-05T11:05:15;17.27;;;6.55;;
54539;SDS011;40438;52.992;18.604;2023-02-05T11:07:47;11.82;;;6.78;;
54539;SDS011;40438;52.992;18.604;2023-02-05T11:10:15;13.38;;;6.35;;
54539;SDS011;40438;52.992;18.604;2023-02-05T11:12:42;12.50;;;6.35;;
54539;SDS011;40438;52.992;18.604;2023-02-05T11:15:16;14.55;;;6.45;;
54539;SDS011;40438;52.992;18.604;2023-02-05T11:17:44;19.33;;;6.95;;
54539;SDS011;40438;52.992;18.604;2023-02-05T11:20:20;13.75;;;6.45;;
54539;SDS011;40438;52.992;18.604;2023-02-05T11:22:51;17.83;;;6.70;;
54539;SDS011;40438;52.992;18.604;2023-02-05T11:25:30;15.43;;;6.78;;
54539;SDS011;40438;52.992;18.604;2023-02-05T11:27:57;11.18;;;6.72;;
54539;SDS011;40438;52.992;18.604;2023-02-05T11:30:24;13.95;;;6.68;;
54539;SDS011;40438;52.992;18.604;2023-02-05T11:32:51;12.52;;;6.68;;
54539;SDS011;40438;52.992;18.604;2023-02-05T11:35:19;11.50;;;6.50;;
54539;SDS011;40438;52.992;18.604;2023-02-05T11:37:47;14.57;;;6.43;;
54539;SDS011;40438;52.992;18.604;2023-02-05T11:40:20;11.18;;;6.35;;
54539;SDS011;40438;52.992;18.604;2023-02-05T11:42:51;13.18;;;6.60;;
54539;SDS011;40438;52.992;18.604;2023-02-05T11:45:23;12.63;;;6.30;;
54539;SDS011;40438;52.992;18.604;2023-02-05T11:47:48;18.75;;;7.22;;
54539;SDS011;40438;52.992;18.604;2023-02-05T11:50:17;14.40;;;6.72;;
54539;SDS011;40438;52.992;18.604;2023-02-05T11:55:23;14.05;;;6.15;;
54539;SDS011;40438;52.992;18.604;2023-02-05T11:57:56;16.85;;;6.38;;
54539;SDS011;40438;52.992;18.604;2023-02-05T12:00:23;13.73;;;5.83;;
54539;SDS011;40438;52.992;18.604;2023-02-05T12:02:49;9.57;;;5.65;;
54539;SDS011;40438;52.992;18.604;2023-02-05T12:05:28;12.55;;;5.88;;
54539;SDS011;40438;52.992;18.604;2023-02-05T12:07:57;13.32;;;5.72;;
54539;SDS011;40438;52.992;18.604;2023-02-05T12:10:32;11.23;;;6.22;;
54539;SDS011;40438;52.992;18.604;2023-02-05T12:13:05;17.52;;;5.93;;
54539;SDS011;40438;52.992;18.604;2023-02-05T12:15:44;11.38;;;6.13;;
54539;SDS011;40438;52.992;18.604;2023-02-05T12:20:48;9.90;;;6.38;;
54539;SDS011;40438;52.992;18.604;2023-02-05T12:23:26;16.17;;;5.90;;
54539;SDS011;40438;52.992;18.604;2023-02-05T12:26:19;11.15;;;5.43;;
54539;SDS011;40438;52.992;18.604;2023-02-05T12:28:58;11.77;;;5.60;;
54539;SDS011;40438;52.992;18.604;2023-02-05T12:31:43;13.57;;;6.13;;
54539;SDS011;40438;52.992;18.604;2023-02-05T12:34:18;16.17;;;5.47;;
54539;SDS011;40438;52.992;18.604;2023-02-05T12:36:56;12.63;;;5.50;;
54539;SDS011;40438;52.992;18.604;2023-02-05T12:39:34;13.65;;;5.32;;
54539;SDS011;40438;52.992;18.604;2023-02-05T12:42:07;11.43;;;5.22;;
54539;SDS011;40438;52.992;18.604;2023-02-05T12:44:43;14.52;;;5.55;;
54539;SDS011;40438;52.992;18.604;2023-02-05T12:47:25;15.52;;;6.03;;
54539;SDS011;40438;52.992;18.604;2023-02-05T12:50:23;17.15;;;6.15;;
54539;SDS011;40438;52.992;18.604;2023-02-05T12:53:07;18.85;;;7.10;;
54539;SDS011;40438;52.992;18.604;2023-02-05T12:55:49;19.83;;;6.93;;
54539;SDS011;40438;52.992;18.604;2023-02-05T12:58:32;9.05;;;5.45;;
54539;SDS011;40438;52.992;18.604;2023-02-05T13:01:02;17.23;;;5.25;;
54539;SDS011;40438;52.992;18.604;2023-02-05T13:03:32;15.82;;;5.82;;
54539;SDS011;40438;52.992;18.604;2023-02-05T13:06:03;13.25;;;5.47;;
54539;SDS011;40438;52.992;18.604;2023-02-05T13:08:34;16.20;;;5.53;;
54539;SDS011;40438;52.992;18.604;2023-02-05T13:11:05;12.70;;;5.65;;
54539;SDS011;40438;52.992;18.604;2023-02-05T13:13:47;14.65;;;5.35;;
54539;SDS011;40438;52.992;18.604;2023-02-05T13:16:16;10.98;;;5.43;;
54539;SDS011;40438;52.992;18.604;2023-02-05T13:18:45;14.10;;;5.65;;
54539;SDS011;40438;52.992;18.604;2023-02-05T13:21:16;10.52;;;5.30;;
54539;SDS011;40438;52.992;18.604;2023-02-05T13:23:43;9.82;;;4.50;;
54539;SDS011;40438;52.992;18.604;2023-02-05T13:26:10;12.50;;;5.40;;
54539;SDS011;40438;52.992;18.604;2023-02-05T13:28:41;10.35;;;5.15;;
54539;SDS011;40438;52.992;18.604;2023-02-05T13:31:10;9.23;;;4.78;;
54539;SDS011;40438;52.992;18.604;2023-02-05T13:33:41;8.50;;;5.35;;
54539;SDS011;40438;52.992;18.604;2023-02-05T13:36:13;9.60;;;4.65;;
54539;SDS011;40438;52.992;18.604;2023-02-05T13:39:08;9.70;;;4.18;;
54539;SDS011;40438;52.992;18.604;2023-02-05T13:42:00;8.57;;;4.47;;
54539;SDS011;40438;52.992;18.604;2023-02-05T13:48:01;10.65;;;4.57;;
54539;SDS011;40438;52.992;18.604;2023-02-05T13:53:48;10.77;;;4.50;;
54539;SDS011;40438;52.992;18.604;2023-02-05T13:56:28;14.98;;;4.72;;
54539;SDS011;40438;52.992;18.604;2023-02-05T13:59:14;15.02;;;4.68;;
54539;SDS011;40438;52.992;18.604;2023-02-05T14:01:48;15.70;;;4.60;;
54539;SDS011;40438;52.992;18.604;2023-02-05T14:04:20;20.13;;;6.68;;
54539;SDS011;40438;52.992;18.604;2023-02-05T14:06:53;8.60;;;4.32;;
54539;SDS011;40438;52.992;18.604;2023-02-05T14:09:28;8.63;;;4.68;;
54539;SDS011;40438;52.992;18.604;2023-02-05T14:12:02;9.43;;;5.00;;
54539;SDS011;40438;52.992;18.604;2023-02-05T14:14:31;15.57;;;4.78;;
54539;SDS011;40438;52.992;18.604;2023-02-05T14:16:58;8.48;;;4.30;;
54539;SDS011;40438;52.992;18.604;2023-02-05T14:19:48;11.55;;;5.00;;
54539;SDS011;40438;52.992;18.604;2023-02-05T14:22:31;10.80;;;4.68;;
54539;SDS011;40438;52.992;18.604;2023-02-05T14:24:58;8.65;;;4.32;;
54539;SDS011;40438;52.992;18.604;2023-02-05T14:36:24;9.38;;;4.35;;
54539;SDS011;40438;52.992;18.604;2023-02-05T14:38:57;12.23;;;4.22;;
54539;SDS011;40438;52.992;18.604;2023-02-05T14:41:26;7.28;;;4.20;;
54539;SDS011;40438;52.992;18.604;2023-02-05T14:43:54;11.13;;;4.72;;
54539;SDS011;40438;52.992;18.604;2023-02-05T14:46:24;10.10;;;3.97;;
54539;SDS011;40438;52.992;18.604;2023-02-05T14:48:53;12.32;;;4.68;;
54539;SDS011;40438;52.992;18.604;2023-02-05T14:51:23;9.23;;;4.57;;
54539;SDS011;40438;52.992;18.604;2023-02-05T14:53:55;10.38;;;4.68;;
54539;SDS011;40438;52.992;18.604;2023-02-05T14:56:23;11.85;;;4.72;;
54539;SDS011;40438;52.992;18.604;2023-02-05T14:58:55;8.70;;;4.30;;
54539;SDS011;40438;52.992;18.604;2023-02-05T15:04:20;9.02;;;4.10;;
54539;SDS011;40438;52.992;18.604;2023-02-05T15:06:53;11.60;;;4.53;;